createdAt,value
2023-02-25T00:00:28.614Z,-2.26
2023-02-25T00:03:02.312Z,-2.28
2023-02-25T00:05:35.228Z,-2.29
2023-02-25T00:08:08.523Z,-2.32
2023-02-25T00:10:41.687Z,-2.21
2023-02-25T00:13:18.427Z,-2.20
2023-02-25T00:15:49.876Z,-2.21
2023-02-25T00:18:22.985Z,-2.21
2023-02-25T00:20:56.332Z,-2.21
2023-02-25T00:23:29.325Z,-2.22
2023-02-25T00:26:03.467Z,-2.20
2023-02-25T00:28:37.421Z,-2.19
2023-02-25T00:31:12.650Z,-2.18
2023-02-25T00:33:46.596Z,-2.16
2023-02-25T00:36:22.095Z,-2.16
2023-02-25T00:38:57.541Z,-2.12
2023-02-25T00:41:31.747Z,-2.12
2023-02-25T00:44:05.068Z,-2.10
2023-02-25T00:46:38.250Z,-2.10
2023-02-25T00:49:15.056Z,-2.07
2023-02-25T00:51:48.727Z,-2.05
2023-02-25T00:54:23.642Z,-2.02
2023-02-25T00:56:56.796Z,-2.03
2023-02-25T00:59:29.692Z,-2.04
2023-02-25T01:02:02.552Z,-2.05
2023-02-25T01:04:35.685Z,-2.02
2023-02-25T01:07:09.112Z,-2.00
2023-02-25T01:09:42.262Z,-1.93
2023-02-25T01:12:15.714Z,-1.97
2023-02-25T01:14:49.338Z,-1.98
2023-02-25T01:17:22.712Z,-1.97
2023-02-25T01:19:57.407Z,-1.96
2023-02-25T01:22:30.519Z,-1.97
2023-02-25T01:25:05.981Z,-1.95
2023-02-25T01:27:40.527Z,-1.95
2023-02-25T01:30:15.019Z,-1.96
2023-02-25T01:32:48.356Z,-1.97
2023-02-25T01:35:21.848Z,-1.95
2023-02-25T01:37:56.723Z,-1.98
2023-02-25T01:40:31.236Z,-1.98
2023-02-25T01:43:05.798Z,-1.96
2023-02-25T01:45:41.815Z,-1.94
2023-02-25T01:48:18.265Z,-1.92
2023-02-25T01:50:54.140Z,-1.93
2023-02-25T01:53:32.388Z,-1.90
2023-02-25T01:56:06.577Z,-1.88
2023-02-25T01:58:40.317Z,-1.90
2023-02-25T02:01:16.326Z,-1.89
2023-02-25T02:03:50.952Z,-1.85
2023-02-25T02:06:25.899Z,-1.84
2023-02-25T02:09:00.137Z,-1.87
2023-02-25T02:11:33.377Z,-1.85
2023-02-25T02:14:07.898Z,-1.83
2023-02-25T02:16:48.663Z,-1.83
2023-02-25T02:19:29.202Z,-1.85
2023-02-25T02:22:07.813Z,-1.82
2023-02-25T02:25:07.965Z,-1.84
2023-02-25T02:27:51.795Z,-1.85
2023-02-25T02:30:43.172Z,-1.83
2023-02-25T02:33:20.400Z,-1.80
2023-02-25T02:35:57.236Z,-1.81
2023-02-25T02:38:33.429Z,-1.79
2023-02-25T02:41:10.092Z,-1.79
2023-02-25T02:43:47.290Z,-1.80
2023-02-25T02:46:23.982Z,-1.78
2023-02-25T02:49:00.521Z,-1.79
2023-02-25T02:51:36.919Z,-1.77
2023-02-25T02:54:12.502Z,-1.78
2023-02-25T02:56:48.113Z,-1.79
2023-02-25T02:59:24.259Z,-1.79
2023-02-25T03:04:43.774Z,-1.59
2023-02-25T03:07:18.795Z,-1.72
2023-02-25T03:09:54.295Z,-1.71
2023-02-25T03:12:27.305Z,-1.70
2023-02-25T03:15:00.898Z,-1.69
2023-02-25T03:17:39.090Z,-1.67
2023-02-25T03:20:16.775Z,-1.64
2023-02-25T03:22:55.941Z,-1.67
2023-02-25T03:25:32.026Z,-1.65
2023-02-25T03:28:08.594Z,-1.63
2023-02-25T03:30:44.602Z,-1.61
2023-02-25T03:33:21.636Z,-1.60
2023-02-25T03:35:57.574Z,-1.59
2023-02-25T03:38:33.980Z,-1.56
2023-02-25T03:41:12.343Z,-1.53
2023-02-25T03:43:48.121Z,-1.55
2023-02-25T03:46:23.410Z,-1.49
2023-02-25T03:48:59.006Z,-1.47
2023-02-25T03:51:34.952Z,-1.41
2023-02-25T03:54:09.000Z,-1.41
2023-02-25T03:56:47.899Z,-1.38
2023-02-25T03:59:23.843Z,-1.37
2023-02-25T04:01:58.788Z,-1.36
2023-02-25T04:04:32.202Z,-1.35
2023-02-25T04:07:05.318Z,-1.34
2023-02-25T04:09:48.375Z,-1.31
2023-02-25T04:12:35.819Z,-1.29
2023-02-25T04:15:13.755Z,-1.27
2023-02-25T04:17:46.975Z,-1.27
2023-02-25T04:20:20.695Z,-1.26
2023-02-25T04:22:53.774Z,-1.24
2023-02-25T04:25:26.968Z,-1.20
2023-02-25T04:27:59.996Z,-1.19
2023-02-25T04:30:34.374Z,-1.17
2023-02-25T04:33:08.351Z,-1.17
2023-02-25T04:35:41.660Z,-1.14
2023-02-25T04:38:14.886Z,-1.12
2023-02-25T04:40:47.955Z,-1.11
2023-02-25T04:43:21.045Z,-1.11
2023-02-25T04:45:56.404Z,-1.17
2023-02-25T04:48:29.562Z,-1.10
2023-02-25T04:51:04.936Z,-1.08
2023-02-25T04:53:38.187Z,-1.04
2023-02-25T04:56:12.424Z,-1.00
2023-02-25T04:58:46.103Z,-1.00
2023-02-25T05:01:19.397Z,-0.97
2023-02-25T05:03:54.955Z,-0.91
2023-02-25T05:06:28.565Z,-0.90
2023-02-25T05:09:02.251Z,-0.86
2023-02-25T05:11:35.476Z,-0.87
2023-02-25T05:14:08.588Z,-0.83
2023-02-25T05:16:41.708Z,-0.84
2023-02-25T05:19:19.527Z,-0.81
2023-02-25T05:21:51.549Z,-0.76
2023-02-25T05:24:24.640Z,-0.73
2023-02-25T05:26:58.229Z,-0.72
2023-02-25T05:29:31.144Z,-0.67
2023-02-25T05:32:04.882Z,-0.64
2023-02-25T05:34:38.243Z,-0.63
2023-02-25T05:37:11.249Z,-0.63
2023-02-25T05:39:44.422Z,-0.60
2023-02-25T05:42:17.780Z,-0.55
2023-02-25T05:44:51.251Z,-0.52
2023-02-25T05:47:24.527Z,-0.43
2023-02-25T05:49:57.718Z,-0.43
2023-02-25T05:52:30.892Z,-0.40
2023-02-25T05:55:04.293Z,-0.35
2023-02-25T05:57:37.178Z,-0.30
2023-02-25T06:00:15.294Z,-0.30
2023-02-25T06:02:49.072Z,-0.27
2023-02-25T06:05:22.374Z,-0.24
2023-02-25T06:07:55.871Z,-0.14
2023-02-25T06:10:29.900Z,-0.15
2023-02-25T06:13:04.335Z,-0.16
2023-02-25T06:15:41.519Z,-0.13
2023-02-25T06:18:18.115Z,-0.09
2023-02-25T06:20:55.273Z,-0.06
2023-02-25T06:23:32.036Z,-0.06
2023-02-25T06:26:14.470Z,-0.02
2023-02-25T06:28:50.393Z,0.06
2023-02-25T06:31:28.608Z,0.12
2023-02-25T06:34:18.415Z,0.24
2023-02-25T06:36:52.899Z,0.31
2023-02-25T06:39:26.465Z,0.38
2023-02-25T06:41:59.562Z,0.42
2023-02-25T06:44:34.072Z,0.46
2023-02-25T06:47:07.136Z,0.46
2023-02-25T06:49:40.352Z,0.52
2023-02-25T06:52:13.326Z,0.54
2023-02-25T06:57:27.266Z,0.68
2023-02-25T07:00:05.370Z,0.51
2023-02-25T07:02:38.861Z,0.54
2023-02-25T07:05:12.800Z,0.60
2023-02-25T07:07:45.781Z,0.60
2023-02-25T07:10:19.188Z,0.61
2023-02-25T07:15:32.604Z,0.96
2023-02-25T07:18:06.749Z,0.89
2023-02-25T07:20:40.389Z,0.92
2023-02-25T07:23:13.567Z,1.04
2023-02-25T07:25:46.829Z,1.15
2023-02-25T07:28:20.147Z,1.15
2023-02-25T07:30:53.619Z,1.25
2023-02-25T07:33:26.998Z,1.35
2023-02-25T07:36:00.243Z,1.45
2023-02-25T07:38:33.338Z,1.49
2023-02-25T07:41:11.193Z,1.44
2023-02-25T07:43:43.298Z,1.52
2023-02-25T07:46:16.237Z,1.57
2023-02-25T07:48:49.641Z,1.56
2023-02-25T07:51:25.257Z,1.50
2023-02-25T07:54:00.681Z,1.63
2023-02-25T07:56:34.162Z,1.69
2023-02-25T07:59:07.226Z,1.61
2023-02-25T08:01:40.615Z,1.67
2023-02-25T08:04:14.127Z,1.71
2023-02-25T08:06:47.551Z,1.72
2023-02-25T08:09:20.868Z,1.76
2023-02-25T08:11:54.176Z,1.74
2023-02-25T08:14:27.388Z,1.70
2023-02-25T08:17:02.174Z,1.65
2023-02-25T08:19:35.234Z,1.68
2023-02-25T08:22:10.781Z,1.68
2023-02-25T08:24:43.772Z,1.70
2023-02-25T08:27:16.755Z,1.74
2023-02-25T08:29:49.870Z,1.76
2023-02-25T08:32:24.792Z,1.78
2023-02-25T08:34:58.145Z,1.77
2023-02-25T08:37:31.346Z,1.74
2023-02-25T08:40:10.000Z,1.77
2023-02-25T08:42:43.332Z,1.84
2023-02-25T08:45:16.569Z,1.84
2023-02-25T08:47:49.654Z,1.87
2023-02-25T08:50:24.002Z,1.90
2023-02-25T08:52:57.960Z,1.94
2023-02-25T08:55:30.997Z,1.97
2023-02-25T08:58:04.302Z,2.01
2023-02-25T09:00:37.950Z,2.03
2023-02-25T09:03:11.071Z,2.12
2023-02-25T09:05:44.223Z,2.14
2023-02-25T09:08:20.441Z,2.15
2023-02-25T09:10:53.497Z,2.15
2023-02-25T09:13:26.740Z,2.19
2023-02-25T09:16:02.369Z,2.18
2023-02-25T09:18:35.982Z,2.19
2023-02-25T09:21:10.990Z,2.26
2023-02-25T09:23:44.611Z,2.36
2023-02-25T09:26:17.794Z,2.40
2023-02-25T09:28:51.394Z,2.42
2023-02-25T09:31:25.268Z,2.31
2023-02-25T09:33:59.120Z,2.30
2023-02-25T09:36:34.085Z,2.28
2023-02-25T09:39:09.801Z,2.35
2023-02-25T09:41:48.603Z,2.35
2023-02-25T09:44:24.889Z,2.31
2023-02-25T09:47:00.982Z,2.32
2023-02-25T09:49:38.180Z,2.37
2023-02-25T09:52:17.024Z,2.33
2023-02-25T09:54:52.684Z,2.28
2023-02-25T09:57:26.378Z,2.24
2023-02-25T10:00:00.390Z,2.24
2023-02-25T10:02:39.419Z,2.22
2023-02-25T10:05:26.685Z,2.20
2023-02-25T10:08:06.678Z,2.16
2023-02-25T10:10:46.865Z,2.11
2023-02-25T10:13:27.347Z,2.05
2023-02-25T10:16:06.424Z,2.04
2023-02-25T10:18:47.633Z,2.04
2023-02-25T10:21:27.131Z,2.07
2023-02-25T10:24:29.490Z,2.13
2023-02-25T10:27:07.607Z,2.15
2023-02-25T10:29:45.973Z,2.25
2023-02-25T10:32:23.350Z,2.34
2023-02-25T10:34:59.753Z,2.41
2023-02-25T10:37:37.737Z,2.54
2023-02-25T10:42:59.761Z,2.75
2023-02-25T10:45:33.786Z,2.67
2023-02-25T10:48:10.502Z,2.71
2023-02-25T10:50:46.244Z,2.78
2023-02-25T10:53:19.893Z,2.78
2023-02-25T10:55:55.055Z,2.83
2023-02-25T10:58:35.194Z,2.88
2023-02-25T11:01:15.803Z,2.94
2023-02-25T11:03:59.121Z,2.92
2023-02-25T11:06:35.546Z,2.93
2023-02-25T11:09:13.727Z,2.96
2023-02-25T11:11:55.123Z,2.99
2023-02-25T11:14:31.042Z,3.03
2023-02-25T11:17:09.407Z,3.06
2023-02-25T11:19:44.641Z,2.98
2023-02-25T11:22:22.872Z,3.04
2023-02-25T11:25:02.489Z,2.94
2023-02-25T11:27:39.584Z,2.97
2023-02-25T11:30:24.436Z,3.06
2023-02-25T11:32:59.503Z,3.02
2023-02-25T11:35:36.008Z,2.93
2023-02-25T11:38:18.204Z,2.87
2023-02-25T11:40:51.442Z,2.93
2023-02-25T11:43:27.477Z,2.91
2023-02-25T11:46:04.209Z,2.87
2023-02-25T11:48:43.000Z,2.89
2023-02-25T11:51:21.498Z,2.81
2023-02-25T11:54:04.802Z,2.76
2023-02-25T11:56:40.393Z,2.78
2023-02-25T11:59:26.005Z,2.80
2023-02-25T12:05:43.618Z,2.98
2023-02-25T12:08:39.097Z,2.80
2023-02-25T12:11:45.199Z,2.76
2023-02-25T12:15:06.310Z,2.79
2023-02-25T12:17:58.442Z,2.75
2023-02-25T12:20:56.564Z,2.71
2023-02-25T12:24:12.662Z,2.75
2023-02-25T12:27:10.618Z,2.82
2023-02-25T12:30:21.085Z,2.92
2023-02-25T12:33:06.418Z,2.92
2023-02-25T12:36:04.884Z,2.94
2023-02-25T12:39:11.727Z,2.96
2023-02-25T12:41:48.705Z,2.88
2023-02-25T12:44:58.355Z,2.83
2023-02-25T12:47:48.978Z,2.82
2023-02-25T12:53:38.588Z,2.95
2023-02-25T12:56:24.263Z,2.79
2023-02-25T12:59:25.038Z,2.80
2023-02-25T13:02:21.988Z,2.82
2023-02-25T13:05:05.581Z,2.76
2023-02-25T13:08:22.866Z,2.79
2023-02-25T13:14:11.023Z,2.94
2023-02-25T13:16:54.633Z,2.76
2023-02-25T13:19:41.261Z,2.76
2023-02-25T13:22:24.731Z,2.70
2023-02-25T13:25:01.608Z,2.83
2023-02-25T13:28:14.992Z,2.79
2023-02-25T13:34:01.349Z,2.90
2023-02-25T13:36:42.522Z,2.81
2023-02-25T13:39:38.303Z,2.83
2023-02-25T13:42:43.272Z,2.83
2023-02-25T13:45:54.774Z,2.86
2023-02-25T13:48:41.335Z,2.83
2023-02-25T13:51:43.408Z,2.73
2023-02-25T13:54:37.113Z,2.73
2023-02-25T13:57:18.364Z,2.63
2023-02-25T14:00:07.208Z,2.58
2023-02-25T14:03:05.578Z,2.59
2023-02-25T14:05:52.672Z,2.59
2023-02-25T14:08:46.502Z,2.53
2023-02-25T14:12:12.990Z,2.52
2023-02-25T14:15:05.249Z,2.52
2023-02-25T14:17:49.291Z,2.51
2023-02-25T14:20:31.330Z,2.51
2023-02-25T14:23:08.092Z,2.50
2023-02-25T14:25:47.032Z,2.49
2023-02-25T14:28:24.845Z,2.51
2023-02-25T14:31:05.872Z,2.56
2023-02-25T14:34:10.230Z,2.60
2023-02-25T14:36:55.129Z,2.61
2023-02-25T14:39:39.879Z,2.60
2023-02-25T14:42:21.543Z,2.70
2023-02-25T14:44:57.820Z,2.63
2023-02-25T14:47:34.215Z,2.57
2023-02-25T14:50:10.642Z,2.54
2023-02-25T14:53:39.301Z,2.60
2023-02-25T15:00:05.178Z,2.62
2023-02-25T15:02:55.490Z,2.49
2023-02-25T15:05:35.383Z,2.51
2023-02-25T15:11:42.825Z,2.66
2023-02-25T15:14:48.900Z,2.49
2023-02-25T15:17:53.447Z,2.52
2023-02-25T15:20:35.350Z,2.56
2023-02-25T15:23:13.945Z,2.55
2023-02-25T15:25:53.006Z,2.52
2023-02-25T15:28:46.765Z,2.51
2023-02-25T15:31:38.767Z,2.51
2023-02-25T15:34:37.833Z,2.54
2023-02-25T15:37:47.075Z,2.55
2023-02-25T15:40:45.476Z,2.55
2023-02-25T15:43:44.519Z,2.56
2023-02-25T15:49:34.546Z,2.63
2023-02-25T15:52:10.931Z,2.45
2023-02-25T15:54:52.600Z,2.44
2023-02-25T15:57:42.060Z,2.41
2023-02-25T16:01:07.254Z,2.43
2023-02-25T16:03:44.904Z,2.44
2023-02-25T16:06:21.741Z,2.42
2023-02-25T16:08:58.344Z,2.40
2023-02-25T16:11:36.411Z,2.42
2023-02-25T16:14:14.406Z,2.42
2023-02-25T16:16:50.785Z,2.44
2023-02-25T16:19:26.751Z,2.38
2023-02-25T16:22:04.109Z,2.36
2023-02-25T16:24:38.849Z,2.32
2023-02-25T16:27:16.312Z,2.28
2023-02-25T16:29:55.566Z,2.29
2023-02-25T16:32:34.368Z,2.28
2023-02-25T16:37:55.751Z,2.29
2023-02-25T16:40:31.894Z,2.17
2023-02-25T16:43:05.898Z,2.16
2023-02-25T16:45:41.952Z,2.15
2023-02-25T16:48:20.400Z,2.14
2023-02-25T16:50:54.752Z,2.11
2023-02-25T16:53:29.741Z,2.14
2023-02-25T16:56:03.374Z,2.13
2023-02-25T16:58:36.724Z,2.11
2023-02-25T17:01:15.130Z,2.14
2023-02-25T17:03:49.236Z,2.13
2023-02-25T17:06:23.666Z,2.13
2023-02-25T17:08:56.997Z,2.14
2023-02-25T17:11:30.429Z,2.16
2023-02-25T17:14:05.970Z,2.15
2023-02-25T17:16:43.756Z,2.19
2023-02-25T17:19:17.246Z,2.07
2023-02-25T17:21:53.597Z,2.07
2023-02-25T17:24:29.540Z,2.00
2023-02-25T17:27:03.478Z,2.00
2023-02-25T17:29:38.541Z,1.98
2023-02-25T17:32:25.324Z,1.95
2023-02-25T17:35:01.240Z,2.00
2023-02-25T17:37:35.190Z,1.93
2023-02-25T17:40:11.672Z,1.91
2023-02-25T17:42:46.360Z,1.92
2023-02-25T17:45:46.697Z,1.96
2023-02-25T17:48:22.241Z,1.89
2023-02-25T17:50:57.784Z,1.88
2023-02-25T17:53:42.983Z,1.90
2023-02-25T17:56:21.251Z,1.86
2023-02-25T17:58:56.334Z,1.88
2023-02-25T18:01:31.598Z,1.81
2023-02-25T18:04:07.096Z,1.84
2023-02-25T18:06:45.064Z,1.85
2023-02-25T18:09:41.106Z,1.83
2023-02-25T18:15:16.006Z,1.95
2023-02-25T18:17:53.185Z,1.86
2023-02-25T18:20:31.916Z,1.85
2023-02-25T18:23:06.322Z,1.83
2023-02-25T18:25:41.488Z,1.81
2023-02-25T18:28:17.358Z,1.75
2023-02-25T18:30:52.590Z,1.87
2023-02-25T18:33:25.818Z,1.83
2023-02-25T18:35:59.318Z,1.78
2023-02-25T18:38:37.274Z,1.82
2023-02-25T18:41:12.132Z,1.78
2023-02-25T18:43:45.387Z,1.78
2023-02-25T18:46:18.437Z,1.82
2023-02-25T18:48:58.464Z,1.84
2023-02-25T18:51:31.664Z,1.84
2023-02-25T18:54:05.609Z,1.90
2023-02-25T18:56:39.255Z,1.90
2023-02-25T18:59:12.583Z,1.83
2023-02-25T19:01:49.537Z,1.84
2023-02-25T19:04:27.078Z,1.82
2023-02-25T19:07:07.927Z,1.77
2023-02-25T19:09:41.871Z,1.76
2023-02-25T19:12:29.950Z,1.76
2023-02-25T19:15:19.626Z,1.77
2023-02-25T19:17:53.182Z,1.70
2023-02-25T19:20:26.906Z,1.70
2023-02-25T19:23:00.180Z,1.63
2023-02-25T19:25:36.852Z,1.68
2023-02-25T19:28:11.092Z,1.65
2023-02-25T19:30:45.356Z,1.66
2023-02-25T19:33:18.605Z,1.68
2023-02-25T19:35:51.494Z,1.62
2023-02-25T19:38:24.761Z,1.69
2023-02-25T19:41:02.622Z,1.67
2023-02-25T19:43:34.492Z,1.61
2023-02-25T19:46:11.284Z,1.67
2023-02-25T19:48:44.469Z,1.53
2023-02-25T19:51:17.928Z,1.53
2023-02-25T19:53:51.062Z,1.54
2023-02-25T19:56:24.525Z,1.48
2023-02-25T19:59:00.188Z,1.49
2023-02-25T20:01:33.412Z,1.56
2023-02-25T20:04:06.789Z,1.50
2023-02-25T20:06:40.329Z,1.46
2023-02-25T20:09:13.495Z,1.47
2023-02-25T20:11:47.292Z,1.49
2023-02-25T20:14:20.332Z,1.46
2023-02-25T20:16:53.816Z,1.55
2023-02-25T20:19:28.159Z,1.47
2023-02-25T20:22:06.521Z,1.44
2023-02-25T20:24:39.911Z,1.41
2023-02-25T20:27:15.970Z,1.42
2023-02-25T20:29:49.226Z,1.38
2023-02-25T20:32:22.607Z,1.41
2023-02-25T20:34:56.634Z,1.42
2023-02-25T20:37:35.382Z,1.37
2023-02-25T20:40:12.186Z,1.30
2023-02-25T20:42:45.988Z,1.37
2023-02-25T20:45:21.006Z,1.32
2023-02-25T20:47:54.940Z,1.34
2023-02-25T20:50:30.401Z,1.34
2023-02-25T20:53:04.386Z,1.30
2023-02-25T20:55:38.534Z,1.30
2023-02-25T20:58:12.359Z,1.40
2023-02-25T21:00:45.578Z,1.37
2023-02-25T21:03:18.743Z,1.28
2023-02-25T21:05:51.954Z,1.26
2023-02-25T21:08:25.188Z,1.29
2023-02-25T21:11:00.903Z,1.31
2023-02-25T21:13:36.291Z,1.30
2023-02-25T21:16:10.537Z,1.30
2023-02-25T21:18:44.851Z,1.25
2023-02-25T21:21:21.207Z,1.27
2023-02-25T21:23:54.549Z,1.26
2023-02-25T21:26:27.406Z,1.30
2023-02-25T21:29:00.802Z,1.27
2023-02-25T21:31:34.172Z,1.33
2023-02-25T21:34:09.305Z,1.37
2023-02-25T21:36:42.735Z,1.27
2023-02-25T21:39:17.273Z,1.33
2023-02-25T21:41:50.492Z,1.34
2023-02-25T21:44:23.659Z,1.29
2023-02-25T21:46:58.295Z,1.34
2023-02-25T21:49:31.888Z,1.31
2023-02-25T21:52:05.564Z,1.31
2023-02-25T21:54:38.774Z,1.52
2023-02-25T21:57:11.841Z,1.38
2023-02-25T21:59:44.872Z,1.34
2023-02-25T22:02:17.976Z,1.37
2023-02-25T22:04:51.109Z,1.43
2023-02-25T22:07:24.160Z,1.47
2023-02-25T22:09:57.753Z,1.48
2023-02-25T22:12:30.932Z,1.48
2023-02-25T22:15:04.134Z,1.45
2023-02-25T22:17:37.297Z,1.47
2023-02-25T22:20:13.117Z,1.46
2023-02-25T22:22:46.256Z,1.47
2023-02-25T22:25:20.295Z,1.46
2023-02-25T22:27:53.341Z,1.42
2023-02-25T22:30:26.769Z,1.44
2023-02-25T22:32:59.825Z,1.47
2023-02-25T22:35:32.880Z,1.44
2023-02-25T22:38:06.011Z,1.48
2023-02-25T22:40:39.781Z,1.48
2023-02-25T22:43:12.958Z,1.43
2023-02-25T22:45:46.226Z,1.42
2023-02-25T22:48:19.370Z,1.34
2023-02-25T22:50:52.795Z,1.41
2023-02-25T22:53:26.015Z,1.41
2023-02-25T22:56:02.529Z,1.42
2023-02-25T22:58:37.071Z,1.41
2023-02-25T23:01:11.202Z,1.38
2023-02-25T23:03:44.537Z,1.42
2023-02-25T23:06:20.316Z,1.45
2023-02-25T23:08:53.955Z,1.50
2023-02-25T23:11:28.581Z,1.40
2023-02-25T23:14:04.262Z,1.46
2023-02-25T23:16:40.494Z,1.49
2023-02-25T23:19:16.516Z,1.46
2023-02-25T23:21:51.082Z,1.46
2023-02-25T23:24:24.149Z,1.51
2023-02-25T23:26:58.558Z,1.46
2023-02-25T23:29:31.477Z,1.47
2023-02-25T23:32:04.850Z,1.60
2023-02-25T23:34:38.168Z,1.51
2023-02-25T23:37:11.478Z,1.52
2023-02-25T23:39:44.647Z,1.48
2023-02-25T23:42:17.672Z,1.53
2023-02-25T23:44:51.140Z,1.54
2023-02-25T23:47:24.324Z,1.47
2023-02-25T23:49:57.786Z,1.54
2023-02-25T23:52:30.978Z,1.55
2023-02-25T23:55:05.739Z,1.47
2023-02-25T23:57:39.439Z,1.50
